PWSweather.com
Personal Weather Stations
Station Observations
ELGHEKO
El Gheko Neighborhood Association, Tucson, AZ 85710

El Gheko Neighborhood AssociationTucson, AZ 85710

Lat: 32.226108, Lon: -110.84443

Elevation: 2598

Station Type: Davis 6153 Vantage Pro 2

http://www.elgheko.us

High Low Average
Temperature 74.2°F23.4°C 43.7°F6.5°C 59.6°F15.3°C
Dew Point 32.3°F0.2°C 15.6°F-9.1°C 25.4°F-3.7°C
Winds 9.0 mph 14.5 kmh Calm Calm 3.0 mph SSW4.8 kmh SSW
Wind Gusts 21.0 mph33.8 kmh -- 8.0 mph12.9 kmh
Humidity 57% 11% 31%
Pressure 29.95 in1014.2 mb 29.80 in1009.1 mb -
Precipitation 0.00 in0.0 mm - -
Hour Temp Dew Point Humidity Winds Wind Gusts Pressure Precip Precip Rate Daily Precip Total
12:00 AM 51.3°F10.7°C 27.8°F-2.3°C 40% 1.0 mph S1.6 kmh S 3.0 mph4.8 kmh 29.92 in1013.2 mb 0.00 in0.0 mm 0.00 in0.0 mm 0.00 in0.0 mm
12:05 AM 51.1°F10.6°C 27.6°F-2.4°C 40% 1.0 mph S1.6 kmh S 3.0 mph4.8 kmh 29.93 in1013.5 mb 0.00 in0.0 mm 0.00 in0.0 mm 0.00 in0.0 mm
12:10 AM 50.9°F10.5°C 27.4°F-2.6°C 40% 1.0 mph S1.6 kmh S 3.0 mph4.8 kmh 29.93 in1013.5 mb 0.00 in0.0 mm 0.00 in0.0 mm 0.00 in0.0 mm
12:15 AM 50.8°F10.4°C 27.9°F-2.3°C 41% 1.0 mph S1.6 kmh S 3.0 mph4.8 kmh 29.93 in1013.5 mb 0.00 in0.0 mm 0.00 in0.0 mm 0.00 in0.0 mm
12:20 AM 50.5°F10.3°C 27.7°F-2.4°C 41% 1.0 mph S1.6 kmh S 3.0 mph4.8 kmh 29.93 in1013.5 mb 0.00 in0.0 mm 0.00 in0.0 mm 0.00 in0.0 mm
12:25 AM 50.4°F10.2°C 27.6°F-2.4°C 41% Calm Calm 2.0 mph3.2 kmh 29.93 in1013.5 mb 0.00 in0.0 mm 0.00 in0.0 mm 0.00 in0.0 mm
12:30 AM 50.2°F10.1°C 28.0°F-2.2°C 42% 1.0 mph S1.6 kmh S 2.0 mph3.2 kmh 29.93 in1013.5 mb 0.00 in0.0 mm 0.00 in0.0 mm 0.00 in0.0 mm
12:35 AM 50.0°F10.0°C 27.8°F-2.3°C 42% 1.0 mph S1.6 kmh S 2.0 mph3.2 kmh 29.93 in1013.5 mb 0.00 in0.0 mm 0.00 in0.0 mm 0.00 in0.0 mm
12:40 AM 49.8°F9.9°C 27.6°F-2.4°C 42% 1.0 mph S1.6 kmh S 1.0 mph1.6 kmh 29.93 in1013.5 mb 0.00 in0.0 mm 0.00 in0.0 mm 0.00 in0.0 mm
12:45 AM 49.6°F9.8°C 27.4°F-2.6°C 42% 1.0 mph S1.6 kmh S 1.0 mph1.6 kmh 29.93 in1013.5 mb 0.00 in0.0 mm 0.00 in0.0 mm 0.00 in0.0 mm
12:50 AM 49.4°F9.7°C 27.2°F-2.7°C 42% 1.0 mph S1.6 kmh S 1.0 mph1.6 kmh 29.93 in1013.5 mb 0.00 in0.0 mm 0.00 in0.0 mm 0.00 in0.0 mm
12:55 AM 49.2°F9.6°C 27.1°F-2.7°C 42% 1.0 mph S1.6 kmh S 3.0 mph4.8 kmh 29.93 in1013.5 mb 0.00 in0.0 mm 0.00 in0.0 mm 0.00 in0.0 mm
01:00 AM 49.0°F9.4°C 27.5°F-2.5°C 43% 1.0 mph S1.6 kmh S 3.0 mph4.8 kmh 29.93 in1013.5 mb 0.00 in0.0 mm 0.00 in0.0 mm 0.00 in0.0 mm
01:05 AM 48.9°F9.4°C 27.4°F-2.6°C 43% 2.0 mph S3.2 kmh S 2.0 mph3.2 kmh 29.94 in1013.9 mb 0.00 in0.0 mm 0.00 in0.0 mm 0.00 in0.0 mm
01:10 AM 48.8°F9.3°C 27.3°F-2.6°C 43% 2.0 mph S3.2 kmh S 3.0 mph4.8 kmh 29.94 in1013.9 mb 0.00 in0.0 mm 0.00 in0.0 mm 0.00 in0.0 mm
01:15 AM 48.8°F9.3°C 27.3°F-2.6°C 43% 2.0 mph S3.2 kmh S 3.0 mph4.8 kmh 29.94 in1013.9 mb 0.00 in0.0 mm 0.00 in0.0 mm 0.00 in0.0 mm
01:20 AM 48.8°F9.3°C 27.8°F-2.3°C 44% 2.0 mph S3.2 kmh S 3.0 mph4.8 kmh 29.94 in1013.9 mb 0.00 in0.0 mm 0.00 in0.0 mm 0.00 in0.0 mm
01:25 AM 48.8°F9.3°C 27.8°F-2.3°C 44% 1.0 mph S1.6 kmh S 3.0 mph4.8 kmh 29.94 in1013.9 mb 0.00 in0.0 mm 0.00 in0.0 mm 0.00 in0.0 mm
01:30 AM 48.7°F9.3°C 27.7°F-2.4°C 44% 1.0 mph S1.6 kmh S 2.0 mph3.2 kmh 29.94 in1013.9 mb 0.00 in0.0 mm 0.00 in0.0 mm 0.00 in0.0 mm
01:35 AM 48.6°F9.2°C 28.2°F-2.1°C 45% 1.0 mph S1.6 kmh S 2.0 mph3.2 kmh 29.94 in1013.9 mb 0.00 in0.0 mm 0.00 in0.0 mm 0.00 in0.0 mm
01:40 AM 48.5°F9.2°C 28.1°F-2.2°C 45% Calm Calm 2.0 mph3.2 kmh 29.95 in1014.2 mb 0.00 in0.0 mm 0.00 in0.0 mm 0.00 in0.0 mm
01:45 AM 48.2°F9.0°C 28.4°F-2.0°C 46% 1.0 mph S1.6 kmh S 2.0 mph3.2 kmh 29.94 in1013.9 mb 0.00 in0.0 mm 0.00 in0.0 mm 0.00 in0.0 mm
01:50 AM 48.0°F8.9°C 28.2°F-2.1°C 46% 1.0 mph S1.6 kmh S 2.0 mph3.2 kmh 29.94 in1013.9 mb 0.00 in0.0 mm 0.00 in0.0 mm 0.00 in0.0 mm
01:55 AM 47.7°F8.7°C 27.9°F-2.3°C 46% 1.0 mph S1.6 kmh S 2.0 mph3.2 kmh 29.94 in1013.9 mb 0.00 in0.0 mm 0.00 in0.0 mm 0.00 in0.0 mm
02:00 AM 47.4°F8.6°C 28.2°F-2.1°C 47% 1.0 mph S1.6 kmh S 2.0 mph3.2 kmh 29.95 in1014.2 mb 0.00 in0.0 mm 0.00 in0.0 mm 0.00 in0.0 mm
02:05 AM 47.2°F8.4°C 28.0°F-2.2°C 47% 1.0 mph S1.6 kmh S 2.0 mph3.2 kmh 29.95 in1014.2 mb 0.00 in0.0 mm 0.00 in0.0 mm 0.00 in0.0 mm
02:10 AM 47.0°F8.3°C 27.8°F-2.3°C 47% Calm Calm 1.0 mph1.6 kmh 29.95 in1014.2 mb 0.00 in0.0 mm 0.00 in0.0 mm 0.00 in0.0 mm
02:15 AM 46.7°F8.2°C 28.5°F-1.9°C 49% Calm Calm -- 29.95 in1014.2 mb 0.00 in0.0 mm 0.00 in0.0 mm 0.00 in0.0 mm
02:20 AM 46.5°F8.1°C 28.3°F-2.1°C 49% Calm Calm 2.0 mph3.2 kmh 29.95 in1014.2 mb 0.00 in0.0 mm 0.00 in0.0 mm 0.00 in0.0 mm
02:25 AM 46.2°F7.9°C 28.6°F-1.9°C 50% 1.0 mph S1.6 kmh S 2.0 mph3.2 kmh 29.95 in1014.2 mb 0.00 in0.0 mm 0.00 in0.0 mm 0.00 in0.0 mm
02:30 AM 45.9°F7.7°C 28.3°F-2.1°C 50% 1.0 mph S1.6 kmh S 2.0 mph3.2 kmh 29.94 in1013.9 mb 0.00 in0.0 mm 0.00 in0.0 mm 0.00 in0.0 mm
02:35 AM 45.7°F7.6°C 28.1°F-2.2°C 50% 1.0 mph S1.6 kmh S 2.0 mph3.2 kmh 29.95 in1014.2 mb 0.00 in0.0 mm 0.00 in0.0 mm 0.00 in0.0 mm
02:40 AM 45.6°F7.6°C 28.0°F-2.2°C 50% 1.0 mph S1.6 kmh S 2.0 mph3.2 kmh 29.94 in1013.9 mb 0.00 in0.0 mm 0.00 in0.0 mm 0.00 in0.0 mm
02:45 AM 45.5°F7.5°C 28.4°F-2.0°C 51% 1.0 mph S1.6 kmh S 2.0 mph3.2 kmh 29.94 in1013.9 mb 0.00 in0.0 mm 0.00 in0.0 mm 0.00 in0.0 mm
02:50 AM 45.5°F7.5°C 28.4°F-2.0°C 51% 1.0 mph S1.6 kmh S 2.0 mph3.2 kmh 29.95 in1014.2 mb 0.00 in0.0 mm 0.00 in0.0 mm 0.00 in0.0 mm
02:55 AM 45.5°F7.5°C 27.9°F-2.3°C 50% 1.0 mph S1.6 kmh S 2.0 mph3.2 kmh 29.94 in1013.9 mb 0.00 in0.0 mm 0.00 in0.0 mm 0.00 in0.0 mm
03:00 AM 45.5°F7.5°C 27.9°F-2.3°C 50% 1.0 mph SSE1.6 kmh SSE 4.0 mph6.4 kmh 29.95 in1014.2 mb 0.00 in0.0 mm 0.00 in0.0 mm 0.00 in0.0 mm
03:05 AM 45.5°F7.5°C 27.9°F-2.3°C 50% 1.0 mph SE1.6 kmh SE 4.0 mph6.4 kmh 29.94 in1013.9 mb 0.00 in0.0 mm 0.00 in0.0 mm 0.00 in0.0 mm
03:10 AM 45.6°F7.6°C 28.0°F-2.2°C 50% 2.0 mph SE3.2 kmh SE 4.0 mph6.4 kmh 29.94 in1013.9 mb 0.00 in0.0 mm 0.00 in0.0 mm 0.00 in0.0 mm
03:15 AM 45.6°F7.6°C 28.0°F-2.2°C 50% 2.0 mph SE3.2 kmh SE 4.0 mph6.4 kmh 29.94 in1013.9 mb 0.00 in0.0 mm 0.00 in0.0 mm 0.00 in0.0 mm
03:20 AM 45.6°F7.6°C 28.0°F-2.2°C 50% 2.0 mph SE3.2 kmh SE 4.0 mph6.4 kmh 29.94 in1013.9 mb 0.00 in0.0 mm 0.00 in0.0 mm 0.00 in0.0 mm
03:25 AM 45.6°F7.6°C 28.0°F-2.2°C 50% 2.0 mph SE3.2 kmh SE 4.0 mph6.4 kmh 29.94 in1013.9 mb 0.00 in0.0 mm 0.00 in0.0 mm 0.00 in0.0 mm
03:30 AM 45.6°F7.6°C 28.5°F-1.9°C 51% 2.0 mph SE3.2 kmh SE 4.0 mph6.4 kmh 29.94 in1013.9 mb 0.00 in0.0 mm 0.00 in0.0 mm 0.00 in0.0 mm
03:35 AM 45.7°F7.6°C 28.6°F-1.9°C 51% 2.0 mph SE3.2 kmh SE 4.0 mph6.4 kmh 29.94 in1013.9 mb 0.00 in0.0 mm 0.00 in0.0 mm 0.00 in0.0 mm
03:40 AM 45.6°F7.6°C 28.5°F-1.9°C 51% 2.0 mph SSE3.2 kmh SSE 4.0 mph6.4 kmh 29.94 in1013.9 mb 0.00 in0.0 mm 0.00 in0.0 mm 0.00 in0.0 mm
03:45 AM 45.7°F7.6°C 28.6°F-1.9°C 51% 2.0 mph S3.2 kmh S 4.0 mph6.4 kmh 29.94 in1013.9 mb 0.00 in0.0 mm 0.00 in0.0 mm 0.00 in0.0 mm
03:50 AM 45.7°F7.6°C 28.6°F-1.9°C 51% 2.0 mph S3.2 kmh S 4.0 mph6.4 kmh 29.94 in1013.9 mb 0.00 in0.0 mm 0.00 in0.0 mm 0.00 in0.0 mm
03:55 AM 45.7°F7.6°C 28.6°F-1.9°C 51% 2.0 mph S3.2 kmh S 4.0 mph6.4 kmh 29.94 in1013.9 mb 0.00 in0.0 mm 0.00 in0.0 mm 0.00 in0.0 mm
04:00 AM 45.8°F7.7°C 28.7°F-1.8°C 51% 2.0 mph S3.2 kmh S 4.0 mph6.4 kmh 29.94 in1013.9 mb 0.00 in0.0 mm 0.00 in0.0 mm 0.00 in0.0 mm
04:05 AM 45.9°F7.7°C 28.8°F-1.8°C 51% 2.0 mph SE3.2 kmh SE 4.0 mph6.4 kmh 29.94 in1013.9 mb 0.00 in0.0 mm 0.00 in0.0 mm 0.00 in0.0 mm
04:10 AM 45.8°F7.7°C 28.7°F-1.8°C 51% 2.0 mph ENE3.2 kmh ENE 4.0 mph6.4 kmh 29.94 in1013.9 mb 0.00 in0.0 mm 0.00 in0.0 mm 0.00 in0.0 mm
04:15 AM 45.5°F7.5°C 28.9°F-1.7°C 52% 2.0 mph NE3.2 kmh NE 4.0 mph6.4 kmh 29.94 in1013.9 mb 0.00 in0.0 mm 0.00 in0.0 mm 0.00 in0.0 mm
04:20 AM 45.3°F7.4°C 28.7°F-1.8°C 52% 2.0 mph ENE3.2 kmh ENE 6.0 mph9.7 kmh 29.94 in1013.9 mb 0.00 in0.0 mm 0.00 in0.0 mm 0.00 in0.0 mm
04:25 AM 45.2°F7.3°C 28.6°F-1.9°C 52% 2.0 mph E3.2 kmh E 6.0 mph9.7 kmh 29.94 in1013.9 mb 0.00 in0.0 mm 0.00 in0.0 mm 0.00 in0.0 mm
04:30 AM 45.1°F7.3°C 28.5°F-1.9°C 52% 1.0 mph E1.6 kmh E 2.0 mph3.2 kmh 29.94 in1013.9 mb 0.00 in0.0 mm 0.00 in0.0 mm 0.00 in0.0 mm
04:35 AM 45.0°F7.2°C 28.4°F-2.0°C 52% Calm Calm 2.0 mph3.2 kmh 29.94 in1013.9 mb 0.00 in0.0 mm 0.00 in0.0 mm 0.00 in0.0 mm
04:40 AM 44.8°F7.1°C 28.7°F-1.8°C 53% Calm Calm 2.0 mph3.2 kmh 29.93 in1013.5 mb 0.00 in0.0 mm 0.00 in0.0 mm 0.00 in0.0 mm
04:45 AM 44.6°F7.0°C 28.5°F-1.9°C 53% 1.0 mph E1.6 kmh E 3.0 mph4.8 kmh 29.94 in1013.9 mb 0.00 in0.0 mm 0.00 in0.0 mm 0.00 in0.0 mm
04:50 AM 44.4°F6.9°C 28.8°F-1.8°C 54% 1.0 mph E1.6 kmh E 3.0 mph4.8 kmh 29.93 in1013.5 mb 0.00 in0.0 mm 0.00 in0.0 mm 0.00 in0.0 mm
04:55 AM 44.4°F6.9°C 28.8°F-1.8°C 54% 2.0 mph E3.2 kmh E 3.0 mph4.8 kmh 29.94 in1013.9 mb 0.00 in0.0 mm 0.00 in0.0 mm 0.00 in0.0 mm
05:00 AM 44.4°F6.9°C 29.2°F-1.6°C 55% 2.0 mph SE3.2 kmh SE 4.0 mph6.4 kmh 29.93 in1013.5 mb 0.00 in0.0 mm 0.00 in0.0 mm 0.00 in0.0 mm
05:05 AM 44.5°F6.9°C 29.3°F-1.5°C 55% 2.0 mph SE3.2 kmh SE 4.0 mph6.4 kmh 29.93 in1013.5 mb 0.00 in0.0 mm 0.00 in0.0 mm 0.00 in0.0 mm
05:10 AM 44.5°F6.9°C 29.3°F-1.5°C 55% 2.0 mph SE3.2 kmh SE 4.0 mph6.4 kmh 29.93 in1013.5 mb 0.00 in0.0 mm 0.00 in0.0 mm 0.00 in0.0 mm
05:15 AM 44.4°F6.9°C 29.2°F-1.6°C 55% 1.0 mph SE1.6 kmh SE 3.0 mph4.8 kmh 29.93 in1013.5 mb 0.00 in0.0 mm 0.00 in0.0 mm 0.00 in0.0 mm
05:20 AM 44.3°F6.8°C 29.1°F-1.6°C 55% 1.0 mph SE1.6 kmh SE 3.0 mph4.8 kmh 29.93 in1013.5 mb 0.00 in0.0 mm 0.00 in0.0 mm 0.00 in0.0 mm
05:25 AM 44.2°F6.8°C 29.5°F-1.4°C 56% 2.0 mph SE3.2 kmh SE 3.0 mph4.8 kmh 29.93 in1013.5 mb 0.00 in0.0 mm 0.00 in0.0 mm 0.00 in0.0 mm
05:30 AM 44.1°F6.7°C 29.4°F-1.4°C 56% 2.0 mph SE3.2 kmh SE 4.0 mph6.4 kmh 29.93 in1013.5 mb 0.00 in0.0 mm 0.00 in0.0 mm 0.00 in0.0 mm
05:35 AM 44.0°F6.7°C 29.3°F-1.5°C 56% 2.0 mph ESE3.2 kmh ESE 4.0 mph6.4 kmh 29.93 in1013.5 mb 0.00 in0.0 mm 0.00 in0.0 mm 0.00 in0.0 mm
05:40 AM 43.9°F6.6°C 29.2°F-1.6°C 56% 2.0 mph ESE3.2 kmh ESE 4.0 mph6.4 kmh 29.93 in1013.5 mb 0.00 in0.0 mm 0.00 in0.0 mm 0.00 in0.0 mm
05:45 AM 43.9°F6.6°C 29.2°F-1.6°C 56% 1.0 mph ESE1.6 kmh ESE 2.0 mph3.2 kmh 29.94 in1013.9 mb 0.00 in0.0 mm 0.00 in0.0 mm 0.00 in0.0 mm
05:50 AM 43.8°F6.6°C 29.1°F-1.6°C 56% 1.0 mph ESE1.6 kmh ESE 3.0 mph4.8 kmh 29.94 in1013.9 mb 0.00 in0.0 mm 0.00 in0.0 mm 0.00 in0.0 mm
05:55 AM 43.8°F6.6°C 29.1°F-1.6°C 56% 1.0 mph ESE1.6 kmh ESE 3.0 mph4.8 kmh 29.94 in1013.9 mb 0.00 in0.0 mm 0.00 in0.0 mm 0.00 in0.0 mm
06:00 AM 43.7°F6.5°C 29.0°F-1.7°C 56% 1.0 mph ESE1.6 kmh ESE 2.0 mph3.2 kmh 29.94 in1013.9 mb 0.00 in0.0 mm 0.00 in0.0 mm 0.00 in0.0 mm
06:05 AM 43.8°F6.6°C 29.1°F-1.6°C 56% 2.0 mph ESE3.2 kmh ESE 3.0 mph4.8 kmh 29.94 in1013.9 mb 0.00 in0.0 mm 0.00 in0.0 mm 0.00 in0.0 mm
06:10 AM 43.8°F6.6°C 29.5°F-1.4°C 57% 1.0 mph ESE1.6 kmh ESE 3.0 mph4.8 kmh 29.94 in1013.9 mb 0.00 in0.0 mm 0.00 in0.0 mm 0.00 in0.0 mm
06:15 AM 43.8°F6.6°C 29.5°F-1.4°C 57% 2.0 mph SE3.2 kmh SE 5.0 mph8.0 kmh 29.94 in1013.9 mb 0.00 in0.0 mm 0.00 in0.0 mm 0.00 in0.0 mm
06:20 AM 44.0°F6.7°C 29.3°F-1.5°C 56% 2.0 mph SE3.2 kmh SE 5.0 mph8.0 kmh 29.94 in1013.9 mb 0.00 in0.0 mm 0.00 in0.0 mm 0.00 in0.0 mm
06:25 AM 44.2°F6.8°C 29.5°F-1.4°C 56% 2.0 mph SSE3.2 kmh SSE 5.0 mph8.0 kmh 29.94 in1013.9 mb 0.00 in0.0 mm 0.00 in0.0 mm 0.00 in0.0 mm
06:30 AM 44.4°F6.9°C 29.7°F-1.3°C 56% 2.0 mph SE3.2 kmh SE 5.0 mph8.0 kmh 29.94 in1013.9 mb 0.00 in0.0 mm 0.00 in0.0 mm 0.00 in0.0 mm
06:35 AM 44.4°F6.9°C 29.7°F-1.3°C 56% 2.0 mph SE3.2 kmh SE 5.0 mph8.0 kmh 29.94 in1013.9 mb 0.00 in0.0 mm 0.00 in0.0 mm 0.00 in0.0 mm
06:40 AM 44.5°F6.9°C 29.8°F-1.2°C 56% 2.0 mph SSE3.2 kmh SSE 4.0 mph6.4 kmh 29.94 in1013.9 mb 0.00 in0.0 mm 0.00 in0.0 mm 0.00 in0.0 mm
06:45 AM 44.5°F6.9°C 29.8°F-1.2°C 56% 1.0 mph SSE1.6 kmh SSE 4.0 mph6.4 kmh 29.94 in1013.9 mb 0.00 in0.0 mm 0.00 in0.0 mm 0.00 in0.0 mm
06:50 AM 44.5°F6.9°C 29.8°F-1.2°C 56% 1.0 mph SSE1.6 kmh SSE 4.0 mph6.4 kmh 29.94 in1013.9 mb 0.00 in0.0 mm 0.00 in0.0 mm 0.00 in0.0 mm
06:55 AM 44.5°F6.9°C 29.8°F-1.2°C 56% 1.0 mph SSE1.6 kmh SSE 2.0 mph3.2 kmh 29.94 in1013.9 mb 0.00 in0.0 mm 0.00 in0.0 mm 0.00 in0.0 mm
07:00 AM 44.5°F6.9°C 29.8°F-1.2°C 56% 1.0 mph SE1.6 kmh SE 4.0 mph6.4 kmh 29.94 in1013.9 mb 0.00 in0.0 mm 0.00 in0.0 mm 0.00 in0.0 mm
07:05 AM 44.6°F7.0°C 29.9°F-1.2°C 56% 2.0 mph SE3.2 kmh SE 4.0 mph6.4 kmh 29.95 in1014.2 mb 0.00 in0.0 mm 0.00 in0.0 mm 0.00 in0.0 mm
07:10 AM 44.7°F7.1°C 30.4°F-0.9°C 57% 2.0 mph SE3.2 kmh SE 3.0 mph4.8 kmh 29.95 in1014.2 mb 0.00 in0.0 mm 0.00 in0.0 mm 0.00 in0.0 mm
07:15 AM 44.8°F7.1°C 30.5°F-0.8°C 57% 1.0 mph SE1.6 kmh SE 3.0 mph4.8 kmh 29.95 in1014.2 mb 0.00 in0.0 mm 0.00 in0.0 mm 0.00 in0.0 mm
07:20 AM 45.0°F7.2°C 30.7°F-0.7°C 57% 2.0 mph SE3.2 kmh SE 4.0 mph6.4 kmh 29.95 in1014.2 mb 0.00 in0.0 mm 0.00 in0.0 mm 0.00 in0.0 mm
07:25 AM 45.2°F7.3°C 30.9°F-0.6°C 57% 2.0 mph SE3.2 kmh SE 4.0 mph6.4 kmh 29.95 in1014.2 mb 0.00 in0.0 mm 0.00 in0.0 mm 0.00 in0.0 mm
07:30 AM 45.4°F7.4°C 30.6°F-0.8°C 56% 2.0 mph SE3.2 kmh SE 4.0 mph6.4 kmh 29.95 in1014.2 mb 0.00 in0.0 mm 0.00 in0.0 mm 0.00 in0.0 mm
07:35 AM 45.7°F7.6°C 30.9°F-0.6°C 56% 2.0 mph SE3.2 kmh SE 5.0 mph8.0 kmh 29.95 in1014.2 mb 0.00 in0.0 mm 0.00 in0.0 mm 0.00 in0.0 mm
07:40 AM 46.2°F7.9°C 30.9°F-0.6°C 55% 2.0 mph SE3.2 kmh SE 5.0 mph8.0 kmh 29.95 in1014.2 mb 0.00 in0.0 mm 0.00 in0.0 mm 0.00 in0.0 mm
07:45 AM 46.9°F8.3°C 31.1°F-0.5°C 54% 3.0 mph SE4.8 kmh SE 7.0 mph11.3 kmh 29.95 in1014.2 mb 0.00 in0.0 mm 0.00 in0.0 mm 0.00 in0.0 mm
07:50 AM 47.5°F8.6°C 31.7°F-0.2°C 54% 2.0 mph SE3.2 kmh SE 7.0 mph11.3 kmh 29.95 in1014.2 mb 0.00 in0.0 mm 0.00 in0.0 mm 0.00 in0.0 mm
07:55 AM 48.1°F8.9°C 31.3°F-0.4°C 52% 2.0 mph SE3.2 kmh SE 4.0 mph6.4 kmh 29.95 in1014.2 mb 0.00 in0.0 mm 0.00 in0.0 mm 0.00 in0.0 mm
08:00 AM 48.8°F9.3°C 31.5°F-0.3°C 51% 2.0 mph SE3.2 kmh SE 4.0 mph6.4 kmh 29.95 in1014.2 mb 0.00 in0.0 mm 0.00 in0.0 mm 0.00 in0.0 mm
08:05 AM 49.6°F9.8°C 31.7°F-0.2°C 50% 2.0 mph SE3.2 kmh SE 4.0 mph6.4 kmh 29.95 in1014.2 mb 0.00 in0.0 mm 0.00 in0.0 mm 0.00 in0.0 mm
08:10 AM 50.4°F10.2°C 31.4°F-0.3°C 48% 2.0 mph SE3.2 kmh SE 5.0 mph8.0 kmh 29.95 in1014.2 mb 0.00 in0.0 mm 0.00 in0.0 mm 0.00 in0.0 mm
08:15 AM 51.0°F10.6°C 31.5°F-0.3°C 47% 2.0 mph SE3.2 kmh SE 5.0 mph8.0 kmh 29.95 in1014.2 mb 0.00 in0.0 mm 0.00 in0.0 mm 0.00 in0.0 mm
08:20 AM 51.6°F10.9°C 32.0°F0.0°C 47% 2.0 mph SE3.2 kmh SE 3.0 mph4.8 kmh 29.95 in1014.2 mb 0.00 in0.0 mm 0.00 in0.0 mm 0.00 in0.0 mm
08:25 AM 52.1°F11.2°C 31.4°F-0.3°C 45% 2.0 mph SE3.2 kmh SE 3.0 mph4.8 kmh 29.95 in1014.2 mb 0.00 in0.0 mm 0.00 in0.0 mm 0.00 in0.0 mm
08:30 AM 52.7°F11.5°C 31.9°F-0.1°C 45% 2.0 mph SE3.2 kmh SE 4.0 mph6.4 kmh 29.95 in1014.2 mb 0.00 in0.0 mm 0.00 in0.0 mm 0.00 in0.0 mm
08:35 AM 53.3°F11.8°C 31.4°F-0.3°C 43% 2.0 mph SE3.2 kmh SE 4.0 mph6.4 kmh 29.95 in1014.2 mb 0.00 in0.0 mm 0.00 in0.0 mm 0.00 in0.0 mm
08:40 AM 54.0°F12.2°C 32.0°F0.0°C 43% 2.0 mph SE3.2 kmh SE 4.0 mph6.4 kmh 29.95 in1014.2 mb 0.00 in0.0 mm 0.00 in0.0 mm 0.00 in0.0 mm
08:45 AM 54.6°F12.6°C 31.9°F-0.1°C 42% 2.0 mph SE3.2 kmh SE 4.0 mph6.4 kmh 29.95 in1014.2 mb 0.00 in0.0 mm 0.00 in0.0 mm 0.00 in0.0 mm
08:50 AM 55.2°F12.9°C 31.9°F-0.1°C 41% 1.0 mph SE1.6 kmh SE 3.0 mph4.8 kmh 29.95 in1014.2 mb 0.00 in0.0 mm 0.00 in0.0 mm 0.00 in0.0 mm
08:55 AM 55.8°F13.2°C 31.8°F-0.1°C 40% 1.0 mph SE1.6 kmh SE 3.0 mph4.8 kmh 29.95 in1014.2 mb 0.00 in0.0 mm 0.00 in0.0 mm 0.00 in0.0 mm
09:00 AM 56.5°F13.6°C 31.8°F-0.1°C 39% 1.0 mph SE1.6 kmh SE 3.0 mph4.8 kmh 29.95 in1014.2 mb 0.00 in0.0 mm 0.00 in0.0 mm 0.00 in0.0 mm
09:05 AM 57.2°F14.0°C 31.8°F-0.1°C 38% 1.0 mph SE1.6 kmh SE 3.0 mph4.8 kmh 29.95 in1014.2 mb 0.00 in0.0 mm 0.00 in0.0 mm 0.00 in0.0 mm
09:10 AM 57.8°F14.3°C 32.3°F0.2°C 38% 1.0 mph SE1.6 kmh SE 3.0 mph4.8 kmh 29.95 in1014.2 mb 0.00 in0.0 mm 0.00 in0.0 mm 0.00 in0.0 mm
09:15 AM 58.5°F14.7°C 31.6°F-0.2°C 36% 1.0 mph SE1.6 kmh SE 3.0 mph4.8 kmh 29.95 in1014.2 mb 0.00 in0.0 mm 0.00 in0.0 mm 0.00 in0.0 mm
09:20 AM 59.4°F15.2°C 31.7°F-0.2°C 35% 1.0 mph SE1.6 kmh SE 4.0 mph6.4 kmh 29.95 in1014.2 mb 0.00 in0.0 mm 0.00 in0.0 mm 0.00 in0.0 mm
09:25 AM 60.3°F15.7°C 31.0°F-0.6°C 33% 1.0 mph SE1.6 kmh SE 4.0 mph6.4 kmh 29.95 in1014.2 mb 0.00 in0.0 mm 0.00 in0.0 mm 0.00 in0.0 mm
09:30 AM 61.2°F16.2°C 31.8°F-0.1°C 33% 1.0 mph S1.6 kmh S 5.0 mph8.0 kmh 29.95 in1014.2 mb 0.00 in0.0 mm 0.00 in0.0 mm 0.00 in0.0 mm
09:35 AM 62.1°F16.7°C 31.1°F-0.5°C 31% 2.0 mph S3.2 kmh S 5.0 mph8.0 kmh 29.95 in1014.2 mb 0.00 in0.0 mm 0.00 in0.0 mm 0.00 in0.0 mm
09:40 AM 63.0°F17.2°C 31.0°F-0.6°C 30% 2.0 mph SE3.2 kmh SE 3.0 mph4.8 kmh 29.95 in1014.2 mb 0.00 in0.0 mm 0.00 in0.0 mm 0.00 in0.0 mm
09:45 AM 63.7°F17.6°C 31.7°F-0.2°C 30% 1.0 mph SE1.6 kmh SE 3.0 mph4.8 kmh 29.94 in1013.9 mb 0.00 in0.0 mm 0.00 in0.0 mm 0.00 in0.0 mm
09:50 AM 64.4°F18.0°C 30.6°F-0.8°C 28% 1.0 mph S1.6 kmh S 5.0 mph8.0 kmh 29.94 in1013.9 mb 0.00 in0.0 mm 0.00 in0.0 mm 0.00 in0.0 mm
09:55 AM 64.8°F18.2°C 30.9°F-0.6°C 28% 2.0 mph S3.2 kmh S 5.0 mph8.0 kmh 29.94 in1013.9 mb 0.00 in0.0 mm 0.00 in0.0 mm 0.00 in0.0 mm
10:00 AM 65.2°F18.4°C 30.3°F-0.9°C 27% 2.0 mph SE3.2 kmh SE 5.0 mph8.0 kmh 29.94 in1013.9 mb 0.00 in0.0 mm 0.00 in0.0 mm 0.00 in0.0 mm
10:05 AM 65.8°F18.8°C 29.0°F-1.7°C 25% 2.0 mph SSE3.2 kmh SSE 6.0 mph9.7 kmh 29.94 in1013.9 mb 0.00 in0.0 mm 0.00 in0.0 mm 0.00 in0.0 mm
10:10 AM 66.1°F18.9°C 29.2°F-1.6°C 25% 3.0 mph S4.8 kmh S 9.0 mph14.5 kmh 29.94 in1013.9 mb 0.00 in0.0 mm 0.00 in0.0 mm 0.00 in0.0 mm
10:15 AM 66.4°F19.1°C 28.5°F-1.9°C 24% 3.0 mph SE4.8 kmh SE 9.0 mph14.5 kmh 29.94 in1013.9 mb 0.00 in0.0 mm 0.00 in0.0 mm 0.00 in0.0 mm
10:20 AM 66.7°F19.3°C 28.7°F-1.8°C 24% 3.0 mph S4.8 kmh S 6.0 mph9.7 kmh 29.93 in1013.5 mb 0.00 in0.0 mm 0.00 in0.0 mm 0.00 in0.0 mm
10:25 AM 66.9°F19.4°C 28.9°F-1.7°C 24% 3.0 mph S4.8 kmh S 6.0 mph9.7 kmh 29.93 in1013.5 mb 0.00 in0.0 mm 0.00 in0.0 mm 0.00 in0.0 mm
10:30 AM 67.2°F19.6°C 29.2°F-1.6°C 24% 2.0 mph S3.2 kmh S 6.0 mph9.7 kmh 29.93 in1013.5 mb 0.00 in0.0 mm 0.00 in0.0 mm 0.00 in0.0 mm
10:35 AM 67.3°F19.6°C 27.1°F-2.7°C 22% 3.0 mph SW4.8 kmh SW 8.0 mph12.9 kmh 29.93 in1013.5 mb 0.00 in0.0 mm 0.00 in0.0 mm 0.00 in0.0 mm
10:40 AM 67.4°F19.7°C 27.2°F-2.7°C 22% 4.0 mph SW6.4 kmh SW 8.0 mph12.9 kmh 29.93 in1013.5 mb 0.00 in0.0 mm 0.00 in0.0 mm 0.00 in0.0 mm
10:45 AM 67.7°F19.8°C 27.5°F-2.5°C 22% 3.0 mph SSW4.8 kmh SSW 7.0 mph11.3 kmh 29.93 in1013.5 mb 0.00 in0.0 mm 0.00 in0.0 mm 0.00 in0.0 mm
10:50 AM 68.0°F20.0°C 26.6°F-3.0°C 21% 3.0 mph S4.8 kmh S 6.0 mph9.7 kmh 29.93 in1013.5 mb 0.00 in0.0 mm 0.00 in0.0 mm 0.00 in0.0 mm
10:55 AM 68.5°F20.3°C 27.0°F-2.8°C 21% 2.0 mph S3.2 kmh S 6.0 mph9.7 kmh 29.93 in1013.5 mb 0.00 in0.0 mm 0.00 in0.0 mm 0.00 in0.0 mm
11:00 AM 68.8°F20.4°C 24.8°F-4.0°C 19% 2.0 mph SW3.2 kmh SW 6.0 mph9.7 kmh 29.92 in1013.2 mb 0.00 in0.0 mm 0.00 in0.0 mm 0.00 in0.0 mm
11:05 AM 69.1°F20.6°C 21.0°F-6.1°C 16% 2.0 mph S3.2 kmh S 7.0 mph11.3 kmh 29.92 in1013.2 mb 0.00 in0.0 mm 0.00 in0.0 mm 0.00 in0.0 mm
11:10 AM 69.2°F20.7°C 21.1°F-6.1°C 16% 3.0 mph S4.8 kmh S 9.0 mph14.5 kmh 29.92 in1013.2 mb 0.00 in0.0 mm 0.00 in0.0 mm 0.00 in0.0 mm
11:15 AM 69.0°F20.6°C 22.3°F-5.4°C 17% 3.0 mph SSW4.8 kmh SSW 9.0 mph14.5 kmh 29.92 in1013.2 mb 0.00 in0.0 mm 0.00 in0.0 mm 0.00 in0.0 mm
11:20 AM 69.5°F20.8°C 22.7°F-5.2°C 17% 2.0 mph W3.2 kmh W 6.0 mph9.7 kmh 29.92 in1013.2 mb 0.00 in0.0 mm 0.00 in0.0 mm 0.00 in0.0 mm
11:25 AM 69.7°F20.9°C 22.9°F-5.1°C 17% 2.0 mph W3.2 kmh W 6.0 mph9.7 kmh 29.92 in1013.2 mb 0.00 in0.0 mm 0.00 in0.0 mm 0.00 in0.0 mm
11:30 AM 69.9°F21.1°C 21.6°F-5.8°C 16% 3.0 mph SW4.8 kmh SW 10.0 mph16.1 kmh 29.91 in1012.9 mb 0.00 in0.0 mm 0.00 in0.0 mm 0.00 in0.0 mm
11:35 AM 70.3°F21.3°C 20.4°F-6.4°C 15% 3.0 mph SW4.8 kmh SW 10.0 mph16.1 kmh 29.91 in1012.9 mb 0.00 in0.0 mm 0.00 in0.0 mm 0.00 in0.0 mm
11:40 AM 70.6°F21.4°C 22.2°F-5.4°C 16% 3.0 mph SSW4.8 kmh SSW 7.0 mph11.3 kmh 29.91 in1012.9 mb 0.00 in0.0 mm 0.00 in0.0 mm 0.00 in0.0 mm
11:45 AM 70.3°F21.3°C 21.9°F-5.6°C 16% 3.0 mph S4.8 kmh S 7.0 mph11.3 kmh 29.91 in1012.9 mb 0.00 in0.0 mm 0.00 in0.0 mm 0.00 in0.0 mm
11:50 AM 69.9°F21.1°C 20.1°F-6.6°C 15% 2.0 mph SSW3.2 kmh SSW 8.0 mph12.9 kmh 29.91 in1012.9 mb 0.00 in0.0 mm 0.00 in0.0 mm 0.00 in0.0 mm
11:55 AM 70.0°F21.1°C 20.2°F-6.6°C 15% 2.0 mph S3.2 kmh S 8.0 mph12.9 kmh 29.91 in1012.9 mb 0.00 in0.0 mm 0.00 in0.0 mm 0.00 in0.0 mm
12:00 PM 70.5°F21.4°C 20.6°F-6.3°C 15% 3.0 mph S4.8 kmh S 8.0 mph12.9 kmh 29.91 in1012.9 mb 0.00 in0.0 mm 0.00 in0.0 mm 0.00 in0.0 mm
12:05 PM 70.8°F21.6°C 20.8°F-6.2°C 15% 3.0 mph SSW4.8 kmh SSW 8.0 mph12.9 kmh 29.90 in1012.5 mb 0.00 in0.0 mm 0.00 in0.0 mm 0.00 in0.0 mm
12:10 PM 71.2°F21.8°C 19.5°F-6.9°C 14% 3.0 mph S4.8 kmh S 7.0 mph11.3 kmh 29.90 in1012.5 mb 0.00 in0.0 mm 0.00 in0.0 mm 0.00 in0.0 mm
12:15 PM 71.6°F22.0°C 19.8°F-6.8°C 14% 3.0 mph SSE4.8 kmh SSE 6.0 mph9.7 kmh 29.90 in1012.5 mb 0.00 in0.0 mm 0.00 in0.0 mm 0.00 in0.0 mm
12:20 PM 72.5°F22.5°C 20.5°F-6.4°C 14% 3.0 mph S4.8 kmh S 9.0 mph14.5 kmh 29.90 in1012.5 mb 0.00 in0.0 mm 0.00 in0.0 mm 0.00 in0.0 mm
12:25 PM 72.5°F22.5°C 20.5°F-6.4°C 14% 4.0 mph SSW6.4 kmh SSW 9.0 mph14.5 kmh 29.89 in1012.2 mb 0.00 in0.0 mm 0.00 in0.0 mm 0.00 in0.0 mm
12:30 PM 72.5°F22.5°C 20.5°F-6.4°C 14% 4.0 mph SW6.4 kmh SW 10.0 mph16.1 kmh 29.89 in1012.2 mb 0.00 in0.0 mm 0.00 in0.0 mm 0.00 in0.0 mm
12:35 PM 72.6°F22.6°C 18.9°F-7.3°C 13% 6.0 mph SSW9.7 kmh SSW 16.0 mph25.7 kmh 29.89 in1012.2 mb 0.00 in0.0 mm 0.00 in0.0 mm 0.00 in0.0 mm
12:40 PM 72.7°F22.6°C 19.0°F-7.2°C 13% 8.0 mph S12.9 kmh S 16.0 mph25.7 kmh 29.89 in1012.2 mb 0.00 in0.0 mm 0.00 in0.0 mm 0.00 in0.0 mm
12:45 PM 72.6°F22.6°C 18.9°F-7.3°C 13% 6.0 mph S9.7 kmh S 13.0 mph20.9 kmh 29.88 in1011.9 mb 0.00 in0.0 mm 0.00 in0.0 mm 0.00 in0.0 mm
12:50 PM 72.4°F22.4°C 18.7°F-7.4°C 13% 5.0 mph SSW8.0 kmh SSW 11.0 mph17.7 kmh 29.88 in1011.9 mb 0.00 in0.0 mm 0.00 in0.0 mm 0.00 in0.0 mm
12:55 PM 72.4°F22.4°C 16.9°F-8.4°C 12% 5.0 mph SSW8.0 kmh SSW 13.0 mph20.9 kmh 29.88 in1011.9 mb 0.00 in0.0 mm 0.00 in0.0 mm 0.00 in0.0 mm
01:00 PM 72.2°F22.3°C 18.6°F-7.4°C 13% 7.0 mph SW11.3 kmh SW 15.0 mph24.1 kmh 29.88 in1011.9 mb 0.00 in0.0 mm 0.00 in0.0 mm 0.00 in0.0 mm
01:05 PM 71.6°F22.0°C 18.1°F-7.7°C 13% 6.0 mph WSW9.7 kmh WSW 15.0 mph24.1 kmh 29.87 in1011.5 mb 0.00 in0.0 mm 0.00 in0.0 mm 0.00 in0.0 mm
01:10 PM 71.8°F22.1°C 18.3°F-7.6°C 13% 5.0 mph SW8.0 kmh SW 10.0 mph16.1 kmh 29.86 in1011.2 mb 0.00 in0.0 mm 0.00 in0.0 mm 0.00 in0.0 mm
01:15 PM 71.6°F22.0°C 18.1°F-7.7°C 13% 7.0 mph SW11.3 kmh SW 12.0 mph19.3 kmh 29.86 in1011.2 mb 0.00 in0.0 mm 0.00 in0.0 mm 0.00 in0.0 mm
01:20 PM 71.4°F21.9°C 17.9°F-7.8°C 13% 7.0 mph SW11.3 kmh SW 16.0 mph25.7 kmh 29.86 in1011.2 mb 0.00 in0.0 mm 0.00 in0.0 mm 0.00 in0.0 mm
01:25 PM 71.7°F22.1°C 18.2°F-7.7°C 13% 7.0 mph SSW11.3 kmh SSW 16.0 mph25.7 kmh 29.86 in1011.2 mb 0.00 in0.0 mm 0.00 in0.0 mm 0.00 in0.0 mm
01:30 PM 72.0°F22.2°C 20.1°F-6.6°C 14% 6.0 mph SSW9.7 kmh SSW 12.0 mph19.3 kmh 29.85 in1010.8 mb 0.00 in0.0 mm 0.00 in0.0 mm 0.00 in0.0 mm
01:35 PM 72.6°F22.6°C 20.6°F-6.3°C 14% 5.0 mph SSW8.0 kmh SSW 10.0 mph16.1 kmh 29.85 in1010.8 mb 0.00 in0.0 mm 0.00 in0.0 mm 0.00 in0.0 mm
01:40 PM 73.2°F22.9°C 19.4°F-7.0°C 13% 4.0 mph SW6.4 kmh SW 9.0 mph14.5 kmh 29.84 in1010.5 mb 0.00 in0.0 mm 0.00 in0.0 mm 0.00 in0.0 mm
01:45 PM 73.4°F23.0°C 19.5°F-6.9°C 13% 5.0 mph SW8.0 kmh SW 15.0 mph24.1 kmh 29.84 in1010.5 mb 0.00 in0.0 mm 0.00 in0.0 mm 0.00 in0.0 mm
01:50 PM 73.6°F23.1°C 17.8°F-7.9°C 12% 6.0 mph SW9.7 kmh SW 15.0 mph24.1 kmh 29.84 in1010.5 mb 0.00 in0.0 mm 0.00 in0.0 mm 0.00 in0.0 mm
01:55 PM 73.6°F23.1°C 19.7°F-6.8°C 13% 6.0 mph SW9.7 kmh SW 13.0 mph20.9 kmh 29.83 in1010.2 mb 0.00 in0.0 mm 0.00 in0.0 mm 0.00 in0.0 mm
02:00 PM 73.4°F23.0°C 19.5°F-6.9°C 13% 6.0 mph SW9.7 kmh SW 12.0 mph19.3 kmh 29.83 in1010.2 mb 0.00 in0.0 mm 0.00 in0.0 mm 0.00 in0.0 mm
02:05 PM 73.5°F23.1°C 17.7°F-7.9°C 12% 6.0 mph SW9.7 kmh SW 11.0 mph17.7 kmh 29.83 in1010.2 mb 0.00 in0.0 mm 0.00 in0.0 mm 0.00 in0.0 mm
02:10 PM 73.6°F23.1°C 15.8°F-9.0°C 11% 7.0 mph SW11.3 kmh SW 15.0 mph24.1 kmh 29.83 in1010.2 mb 0.00 in0.0 mm 0.00 in0.0 mm 0.00 in0.0 mm
02:15 PM 73.3°F22.9°C 15.6°F-9.1°C 11% 7.0 mph SW11.3 kmh SW 15.0 mph24.1 kmh 29.83 in1010.2 mb 0.00 in0.0 mm 0.00 in0.0 mm 0.00 in0.0 mm
02:20 PM 73.4°F23.0°C 17.6°F-8.0°C 12% 7.0 mph SW11.3 kmh SW 13.0 mph20.9 kmh 29.83 in1010.2 mb 0.00 in0.0 mm 0.00 in0.0 mm 0.00 in0.0 mm
02:25 PM 73.6°F23.1°C 15.8°F-9.0°C 11% 7.0 mph SW11.3 kmh SW 15.0 mph24.1 kmh 29.82 in1009.8 mb 0.00 in0.0 mm 0.00 in0.0 mm 0.00 in0.0 mm
02:30 PM 73.6°F23.1°C 17.8°F-7.9°C 12% 7.0 mph SW11.3 kmh SW 16.0 mph25.7 kmh 29.82 in1009.8 mb 0.00 in0.0 mm 0.00 in0.0 mm 0.00 in0.0 mm
02:35 PM 73.6°F23.1°C 17.8°F-7.9°C 12% 7.0 mph SW11.3 kmh SW 16.0 mph25.7 kmh 29.82 in1009.8 mb 0.00 in0.0 mm 0.00 in0.0 mm 0.00 in0.0 mm
02:40 PM 73.9°F23.3°C 19.9°F-6.7°C 13% 7.0 mph SW11.3 kmh SW 15.0 mph24.1 kmh 29.82 in1009.8 mb 0.00 in0.0 mm 0.00 in0.0 mm 0.00 in0.0 mm
02:45 PM 74.2°F23.4°C 20.1°F-6.6°C 13% 6.0 mph SW9.7 kmh SW 15.0 mph24.1 kmh 29.82 in1009.8 mb 0.00 in0.0 mm 0.00 in0.0 mm 0.00 in0.0 mm
02:50 PM 74.2°F23.4°C 20.1°F-6.6°C 13% 5.0 mph SW8.0 kmh SW 11.0 mph17.7 kmh 29.82 in1009.8 mb 0.00 in0.0 mm 0.00 in0.0 mm 0.00 in0.0 mm
02:55 PM 73.7°F23.2°C 17.9°F-7.8°C 12% 7.0 mph SW11.3 kmh SW 16.0 mph25.7 kmh 29.81 in1009.5 mb 0.00 in0.0 mm 0.00 in0.0 mm 0.00 in0.0 mm
03:00 PM 73.1°F22.8°C 17.4°F-8.1°C 12% 9.0 mph SSW14.5 kmh SSW 17.0 mph27.4 kmh 29.81 in1009.5 mb 0.00 in0.0 mm 0.00 in0.0 mm 0.00 in0.0 mm
03:05 PM 72.8°F22.7°C 19.0°F-7.2°C 13% 9.0 mph SSW14.5 kmh SSW 17.0 mph27.4 kmh 29.81 in1009.5 mb 0.00 in0.0 mm 0.00 in0.0 mm 0.00 in0.0 mm
03:10 PM 72.7°F22.6°C 20.7°F-6.3°C 14% 7.0 mph SW11.3 kmh SW 16.0 mph25.7 kmh 29.81 in1009.5 mb 0.00 in0.0 mm 0.00 in0.0 mm 0.00 in0.0 mm
03:15 PM 72.4°F22.4°C 20.5°F-6.4°C 14% 7.0 mph SW11.3 kmh SW 16.0 mph25.7 kmh 29.81 in1009.5 mb 0.00 in0.0 mm 0.00 in0.0 mm 0.00 in0.0 mm
03:20 PM 72.3°F22.4°C 22.0°F-5.6°C 15% 9.0 mph SW14.5 kmh SW 16.0 mph25.7 kmh 29.81 in1009.5 mb 0.00 in0.0 mm 0.00 in0.0 mm 0.00 in0.0 mm
03:25 PM 72.2°F22.3°C 21.9°F-5.6°C 15% 9.0 mph SSW14.5 kmh SSW 15.0 mph24.1 kmh 29.81 in1009.5 mb 0.00 in0.0 mm 0.00 in0.0 mm 0.00 in0.0 mm
03:30 PM 72.4°F22.4°C 22.1°F-5.5°C 15% 7.0 mph SW11.3 kmh SW 14.0 mph22.5 kmh 29.81 in1009.5 mb 0.00 in0.0 mm 0.00 in0.0 mm 0.00 in0.0 mm
03:35 PM 72.8°F22.7°C 20.8°F-6.2°C 14% 7.0 mph SSW11.3 kmh SSW 19.0 mph30.6 kmh 29.81 in1009.5 mb 0.00 in0.0 mm 0.00 in0.0 mm 0.00 in0.0 mm
03:40 PM 72.9°F22.7°C 20.9°F-6.2°C 14% 7.0 mph SSW11.3 kmh SSW 19.0 mph30.6 kmh 29.80 in1009.1 mb 0.00 in0.0 mm 0.00 in0.0 mm 0.00 in0.0 mm
03:45 PM 73.0°F22.8°C 20.9°F-6.2°C 14% 6.0 mph SSW9.7 kmh SSW 14.0 mph22.5 kmh 29.80 in1009.1 mb 0.00 in0.0 mm 0.00 in0.0 mm 0.00 in0.0 mm
03:50 PM 73.0°F22.8°C 20.9°F-6.2°C 14% 6.0 mph SW9.7 kmh SW 14.0 mph22.5 kmh 29.80 in1009.1 mb 0.00 in0.0 mm 0.00 in0.0 mm 0.00 in0.0 mm
03:55 PM 73.2°F22.9°C 22.7°F-5.2°C 15% 6.0 mph SW9.7 kmh SW 14.0 mph22.5 kmh 29.80 in1009.1 mb 0.00 in0.0 mm 0.00 in0.0 mm 0.00 in0.0 mm
04:00 PM 73.3°F22.9°C 22.8°F-5.1°C 15% 5.0 mph SW8.0 kmh SW 14.0 mph22.5 kmh 29.80 in1009.1 mb 0.00 in0.0 mm 0.00 in0.0 mm 0.00 in0.0 mm
04:05 PM 73.4°F23.0°C 24.4°F-4.2°C 16% 5.0 mph SW8.0 kmh SW 15.0 mph24.1 kmh 29.80 in1009.1 mb 0.00 in0.0 mm 0.00 in0.0 mm 0.00 in0.0 mm
04:10 PM 73.2°F22.9°C 24.3°F-4.3°C 16% 5.0 mph WSW8.0 kmh WSW 15.0 mph24.1 kmh 29.80 in1009.1 mb 0.00 in0.0 mm 0.00 in0.0 mm 0.00 in0.0 mm
04:15 PM 73.1°F22.8°C 24.2°F-4.3°C 16% 4.0 mph SW6.4 kmh SW 10.0 mph16.1 kmh 29.80 in1009.1 mb 0.00 in0.0 mm 0.00 in0.0 mm 0.00 in0.0 mm
04:20 PM 73.2°F22.9°C 22.7°F-5.2°C 15% 4.0 mph SW6.4 kmh SW 12.0 mph19.3 kmh 29.80 in1009.1 mb 0.00 in0.0 mm 0.00 in0.0 mm 0.00 in0.0 mm
04:25 PM 73.0°F22.8°C 20.9°F-6.2°C 14% 6.0 mph SW9.7 kmh SW 15.0 mph24.1 kmh 29.80 in1009.1 mb 0.00 in0.0 mm 0.00 in0.0 mm 0.00 in0.0 mm
04:30 PM 72.7°F22.6°C 19.0°F-7.2°C 13% 7.0 mph SW11.3 kmh SW 15.0 mph24.1 kmh 29.80 in1009.1 mb 0.00 in0.0 mm 0.00 in0.0 mm 0.00 in0.0 mm
04:35 PM 72.1°F22.3°C 18.5°F-7.5°C 13% 7.0 mph WSW11.3 kmh WSW 13.0 mph20.9 kmh 29.80 in1009.1 mb 0.00 in0.0 mm 0.00 in0.0 mm 0.00 in0.0 mm
04:40 PM 71.4°F21.9°C 19.7°F-6.8°C 14% 7.0 mph WSW11.3 kmh WSW 15.0 mph24.1 kmh 29.80 in1009.1 mb 0.00 in0.0 mm 0.00 in0.0 mm 0.00 in0.0 mm
04:45 PM 71.0°F21.7°C 17.6°F-8.0°C 13% 8.0 mph WSW12.9 kmh WSW 16.0 mph25.7 kmh 29.80 in1009.1 mb 0.00 in0.0 mm 0.00 in0.0 mm 0.00 in0.0 mm
04:50 PM 70.7°F21.5°C 17.4°F-8.1°C 13% 8.0 mph WSW12.9 kmh WSW 16.0 mph25.7 kmh 29.80 in1009.1 mb 0.00 in0.0 mm 0.00 in0.0 mm 0.00 in0.0 mm
04:55 PM 70.3°F21.3°C 18.8°F-7.3°C 14% 8.0 mph WSW12.9 kmh WSW 15.0 mph24.1 kmh 29.80 in1009.1 mb 0.00 in0.0 mm 0.00 in0.0 mm 0.00 in0.0 mm
05:00 PM 70.2°F21.2°C 18.7°F-7.4°C 14% 8.0 mph WSW12.9 kmh WSW 15.0 mph24.1 kmh 29.80 in1009.1 mb 0.00 in0.0 mm 0.00 in0.0 mm 0.00 in0.0 mm
05:05 PM 69.9°F21.1°C 18.5°F-7.5°C 14% 9.0 mph WSW14.5 kmh WSW 18.0 mph29.0 kmh 29.80 in1009.1 mb 0.00 in0.0 mm 0.00 in0.0 mm 0.00 in0.0 mm
05:10 PM 69.5°F20.8°C 18.2°F-7.7°C 14% 9.0 mph WSW14.5 kmh WSW 18.0 mph29.0 kmh 29.80 in1009.1 mb 0.00 in0.0 mm 0.00 in0.0 mm 0.00 in0.0 mm
05:15 PM 69.3°F20.7°C 19.6°F-6.9°C 15% 9.0 mph WSW14.5 kmh WSW 18.0 mph29.0 kmh 29.80 in1009.1 mb 0.00 in0.0 mm 0.00 in0.0 mm 0.00 in0.0 mm
05:20 PM 69.2°F20.7°C 19.5°F-6.9°C 15% 8.0 mph WSW12.9 kmh WSW 15.0 mph24.1 kmh 29.80 in1009.1 mb 0.00 in0.0 mm 0.00 in0.0 mm 0.00 in0.0 mm
05:25 PM 69.0°F20.6°C 20.9°F-6.2°C 16% 7.0 mph WSW11.3 kmh WSW 13.0 mph20.9 kmh 29.81 in1009.5 mb 0.00 in0.0 mm 0.00 in0.0 mm 0.00 in0.0 mm
05:30 PM 69.0°F20.6°C 20.9°F-6.2°C 16% 6.0 mph WSW9.7 kmh WSW 12.0 mph19.3 kmh 29.81 in1009.5 mb 0.00 in0.0 mm 0.00 in0.0 mm 0.00 in0.0 mm
05:35 PM 68.9°F20.5°C 20.8°F-6.2°C 16% 6.0 mph SW9.7 kmh SW 10.0 mph16.1 kmh 29.81 in1009.5 mb 0.00 in0.0 mm 0.00 in0.0 mm 0.00 in0.0 mm
05:40 PM 68.7°F20.4°C 19.1°F-7.2°C 15% 6.0 mph SW9.7 kmh SW 16.0 mph25.7 kmh 29.81 in1009.5 mb 0.00 in0.0 mm 0.00 in0.0 mm 0.00 in0.0 mm
05:45 PM 68.4°F20.2°C 18.9°F-7.3°C 15% 8.0 mph SW12.9 kmh SW 16.0 mph25.7 kmh 29.82 in1009.8 mb 0.00 in0.0 mm 0.00 in0.0 mm 0.00 in0.0 mm
05:50 PM 68.1°F20.1°C 18.7°F-7.4°C 15% 9.0 mph SW14.5 kmh SW 18.0 mph29.0 kmh 29.82 in1009.8 mb 0.00 in0.0 mm 0.00 in0.0 mm 0.00 in0.0 mm
05:55 PM 67.9°F19.9°C 18.5°F-7.5°C 15% 8.0 mph SW12.9 kmh SW 21.0 mph33.8 kmh 29.82 in1009.8 mb 0.00 in0.0 mm 0.00 in0.0 mm 0.00 in0.0 mm
06:00 PM 67.7°F19.8°C 19.8°F-6.8°C 16% 8.0 mph SW12.9 kmh SW 21.0 mph33.8 kmh 29.82 in1009.8 mb 0.00 in0.0 mm 0.00 in0.0 mm 0.00 in0.0 mm
06:05 PM 67.4°F19.7°C 19.6°F-6.9°C 16% 7.0 mph SW11.3 kmh SW 16.0 mph25.7 kmh 29.82 in1009.8 mb 0.00 in0.0 mm 0.00 in0.0 mm 0.00 in0.0 mm
06:10 PM 67.2°F19.6°C 20.9°F-6.2°C 17% 8.0 mph SW12.9 kmh SW 16.0 mph25.7 kmh 29.82 in1009.8 mb 0.00 in0.0 mm 0.00 in0.0 mm 0.00 in0.0 mm
06:15 PM 67.0°F19.4°C 22.1°F-5.5°C 18% 8.0 mph SW12.9 kmh SW 16.0 mph25.7 kmh 29.83 in1010.2 mb 0.00 in0.0 mm 0.00 in0.0 mm 0.00 in0.0 mm
06:20 PM 66.9°F19.4°C 22.0°F-5.6°C 18% 6.0 mph SW9.7 kmh SW 16.0 mph25.7 kmh 29.83 in1010.2 mb 0.00 in0.0 mm 0.00 in0.0 mm 0.00 in0.0 mm
06:25 PM 66.8°F19.3°C 21.9°F-5.6°C 18% 6.0 mph WSW9.7 kmh WSW 14.0 mph22.5 kmh 29.83 in1010.2 mb 0.00 in0.0 mm 0.00 in0.0 mm 0.00 in0.0 mm
06:30 PM 66.6°F19.2°C 21.7°F-5.7°C 18% 7.0 mph WSW11.3 kmh WSW 15.0 mph24.1 kmh 29.83 in1010.2 mb 0.00 in0.0 mm 0.00 in0.0 mm 0.00 in0.0 mm
06:35 PM 66.6°F19.2°C 21.7°F-5.7°C 18% 7.0 mph WSW11.3 kmh WSW 15.0 mph24.1 kmh 29.83 in1010.2 mb 0.00 in0.0 mm 0.00 in0.0 mm 0.00 in0.0 mm
06:40 PM 66.4°F19.1°C 22.8°F-5.1°C 19% 6.0 mph WSW9.7 kmh WSW 12.0 mph19.3 kmh 29.83 in1010.2 mb 0.00 in0.0 mm 0.00 in0.0 mm 0.00 in0.0 mm
06:45 PM 66.4°F19.1°C 22.8°F-5.1°C 19% 7.0 mph WSW11.3 kmh WSW 14.0 mph22.5 kmh 29.84 in1010.5 mb 0.00 in0.0 mm 0.00 in0.0 mm 0.00 in0.0 mm
06:50 PM 66.2°F19.0°C 23.9°F-4.5°C 20% 8.0 mph WSW12.9 kmh WSW 15.0 mph24.1 kmh 29.84 in1010.5 mb 0.00 in0.0 mm 0.00 in0.0 mm 0.00 in0.0 mm
06:55 PM 66.1°F18.9°C 23.8°F-4.6°C 20% 8.0 mph SW12.9 kmh SW 17.0 mph27.4 kmh 29.84 in1010.5 mb 0.00 in0.0 mm 0.00 in0.0 mm 0.00 in0.0 mm
07:00 PM 66.0°F18.9°C 23.7°F-4.6°C 20% 8.0 mph WSW12.9 kmh WSW 17.0 mph27.4 kmh 29.84 in1010.5 mb 0.00 in0.0 mm 0.00 in0.0 mm 0.00 in0.0 mm
07:05 PM 65.9°F18.8°C 23.7°F-4.6°C 20% 7.0 mph WSW11.3 kmh WSW 15.0 mph24.1 kmh 29.84 in1010.5 mb 0.00 in0.0 mm 0.00 in0.0 mm 0.00 in0.0 mm
07:10 PM 65.8°F18.8°C 23.6°F-4.7°C 20% 6.0 mph SW9.7 kmh SW 14.0 mph22.5 kmh 29.84 in1010.5 mb 0.00 in0.0 mm 0.00 in0.0 mm 0.00 in0.0 mm
07:15 PM 65.7°F18.7°C 23.5°F-4.7°C 20% 6.0 mph SW9.7 kmh SW 15.0 mph24.1 kmh 29.84 in1010.5 mb 0.00 in0.0 mm 0.00 in0.0 mm 0.00 in0.0 mm
07:20 PM 65.6°F18.7°C 23.4°F-4.8°C 20% 6.0 mph SW9.7 kmh SW 15.0 mph24.1 kmh 29.84 in1010.5 mb 0.00 in0.0 mm 0.00 in0.0 mm 0.00 in0.0 mm
07:25 PM 65.5°F18.6°C 23.3°F-4.8°C 20% 5.0 mph SW8.0 kmh SW 14.0 mph22.5 kmh 29.85 in1010.8 mb 0.00 in0.0 mm 0.00 in0.0 mm 0.00 in0.0 mm
07:30 PM 65.3°F18.5°C 23.2°F-4.9°C 20% 6.0 mph SW9.7 kmh SW 14.0 mph22.5 kmh 29.85 in1010.8 mb 0.00 in0.0 mm 0.00 in0.0 mm 0.00 in0.0 mm
07:35 PM 65.2°F18.4°C 23.1°F-4.9°C 20% 6.0 mph SW9.7 kmh SW 13.0 mph20.9 kmh 29.85 in1010.8 mb 0.00 in0.0 mm 0.00 in0.0 mm 0.00 in0.0 mm
07:40 PM 65.1°F18.4°C 23.0°F-5.0°C 20% 6.0 mph SW9.7 kmh SW 11.0 mph17.7 kmh 29.85 in1010.8 mb 0.00 in0.0 mm 0.00 in0.0 mm 0.00 in0.0 mm
07:45 PM 65.0°F18.3°C 22.9°F-5.1°C 20% 6.0 mph SW9.7 kmh SW 12.0 mph19.3 kmh 29.85 in1010.8 mb 0.00 in0.0 mm 0.00 in0.0 mm 0.00 in0.0 mm
07:50 PM 64.9°F18.3°C 22.8°F-5.1°C 20% 6.0 mph SW9.7 kmh SW 12.0 mph19.3 kmh 29.85 in1010.8 mb 0.00 in0.0 mm 0.00 in0.0 mm 0.00 in0.0 mm
07:55 PM 64.8°F18.2°C 22.7°F-5.2°C 20% 5.0 mph SW8.0 kmh SW 12.0 mph19.3 kmh 29.85 in1010.8 mb 0.00 in0.0 mm 0.00 in0.0 mm 0.00 in0.0 mm
08:00 PM 64.7°F18.2°C 23.8°F-4.6°C 21% 5.0 mph SW8.0 kmh SW 11.0 mph17.7 kmh 29.86 in1011.2 mb 0.00 in0.0 mm 0.00 in0.0 mm 0.00 in0.0 mm
08:05 PM 64.6°F18.1°C 23.7°F-4.6°C 21% 5.0 mph SW8.0 kmh SW 12.0 mph19.3 kmh 29.86 in1011.2 mb 0.00 in0.0 mm 0.00 in0.0 mm 0.00 in0.0 mm
08:10 PM 64.5°F18.1°C 22.5°F-5.3°C 20% 5.0 mph SW8.0 kmh SW 15.0 mph24.1 kmh 29.86 in1011.2 mb 0.00 in0.0 mm 0.00 in0.0 mm 0.00 in0.0 mm
08:15 PM 64.4°F18.0°C 22.4°F-5.3°C 20% 5.0 mph SW8.0 kmh SW 15.0 mph24.1 kmh 29.86 in1011.2 mb 0.00 in0.0 mm 0.00 in0.0 mm 0.00 in0.0 mm
08:20 PM 64.4°F18.0°C 23.6°F-4.7°C 21% 4.0 mph SW6.4 kmh SW 12.0 mph19.3 kmh 29.86 in1011.2 mb 0.00 in0.0 mm 0.00 in0.0 mm 0.00 in0.0 mm
08:25 PM 64.3°F17.9°C 23.5°F-4.7°C 21% 4.0 mph SW6.4 kmh SW 10.0 mph16.1 kmh 29.86 in1011.2 mb 0.00 in0.0 mm 0.00 in0.0 mm 0.00 in0.0 mm
08:30 PM 64.1°F17.8°C 23.3°F-4.8°C 21% 4.0 mph SW6.4 kmh SW 10.0 mph16.1 kmh 29.87 in1011.5 mb 0.00 in0.0 mm 0.00 in0.0 mm 0.00 in0.0 mm
08:35 PM 64.1°F17.8°C 23.3°F-4.8°C 21% 5.0 mph SW8.0 kmh SW 11.0 mph17.7 kmh 29.87 in1011.5 mb 0.00 in0.0 mm 0.00 in0.0 mm 0.00 in0.0 mm
08:40 PM 64.0°F17.8°C 23.2°F-4.9°C 21% 5.0 mph SW8.0 kmh SW 11.0 mph17.7 kmh 29.87 in1011.5 mb 0.00 in0.0 mm 0.00 in0.0 mm 0.00 in0.0 mm
08:45 PM 63.9°F17.7°C 23.2°F-4.9°C 21% 4.0 mph WSW6.4 kmh WSW 13.0 mph20.9 kmh 29.87 in1011.5 mb 0.00 in0.0 mm 0.00 in0.0 mm 0.00 in0.0 mm
08:50 PM 63.8°F17.7°C 21.9°F-5.6°C 20% 4.0 mph WSW6.4 kmh WSW 13.0 mph20.9 kmh 29.87 in1011.5 mb 0.00 in0.0 mm 0.00 in0.0 mm 0.00 in0.0 mm
08:55 PM 63.7°F17.6°C 21.8°F-5.7°C 20% 5.0 mph WSW8.0 kmh WSW 9.0 mph14.5 kmh 29.88 in1011.9 mb 0.00 in0.0 mm 0.00 in0.0 mm 0.00 in0.0 mm
09:00 PM 63.6°F17.6°C 21.7°F-5.7°C 20% 4.0 mph WSW6.4 kmh WSW 9.0 mph14.5 kmh 29.88 in1011.9 mb 0.00 in0.0 mm 0.00 in0.0 mm 0.00 in0.0 mm
09:05 PM 63.5°F17.5°C 21.7°F-5.7°C 20% 3.0 mph WSW4.8 kmh WSW 9.0 mph14.5 kmh 29.88 in1011.9 mb 0.00 in0.0 mm 0.00 in0.0 mm 0.00 in0.0 mm
09:10 PM 63.4°F17.4°C 21.6°F-5.8°C 20% 4.0 mph WSW6.4 kmh WSW 9.0 mph14.5 kmh 29.88 in1011.9 mb 0.00 in0.0 mm 0.00 in0.0 mm 0.00 in0.0 mm
09:15 PM 63.3°F17.4°C 21.5°F-5.8°C 20% 4.0 mph WSW6.4 kmh WSW 9.0 mph14.5 kmh 29.88 in1011.9 mb 0.00 in0.0 mm 0.00 in0.0 mm 0.00 in0.0 mm
09:20 PM 63.2°F17.3°C 23.7°F-4.6°C 22% 3.0 mph WSW4.8 kmh WSW 9.0 mph14.5 kmh 29.88 in1011.9 mb 0.00 in0.0 mm 0.00 in0.0 mm 0.00 in0.0 mm
09:25 PM 63.0°F17.2°C 24.6°F-4.1°C 23% 3.0 mph WSW4.8 kmh WSW 10.0 mph16.1 kmh 29.88 in1011.9 mb 0.00 in0.0 mm 0.00 in0.0 mm 0.00 in0.0 mm
09:30 PM 62.9°F17.2°C 25.5°F-3.6°C 24% 3.0 mph WSW4.8 kmh WSW 10.0 mph16.1 kmh 29.89 in1012.2 mb 0.00 in0.0 mm 0.00 in0.0 mm 0.00 in0.0 mm
09:35 PM 62.7°F17.1°C 25.3°F-3.7°C 24% 3.0 mph WSW4.8 kmh WSW 7.0 mph11.3 kmh 29.89 in1012.2 mb 0.00 in0.0 mm 0.00 in0.0 mm 0.00 in0.0 mm
09:40 PM 62.6°F17.0°C 26.2°F-3.2°C 25% 3.0 mph WSW4.8 kmh WSW 6.0 mph9.7 kmh 29.88 in1011.9 mb 0.00 in0.0 mm 0.00 in0.0 mm 0.00 in0.0 mm
09:45 PM 62.4°F16.9°C 27.0°F-2.8°C 26% 3.0 mph WSW4.8 kmh WSW 7.0 mph11.3 kmh 29.88 in1011.9 mb 0.00 in0.0 mm 0.00 in0.0 mm 0.00 in0.0 mm
09:50 PM 62.3°F16.8°C 27.9°F-2.3°C 27% 3.0 mph WSW4.8 kmh WSW 7.0 mph11.3 kmh 29.88 in1011.9 mb 0.00 in0.0 mm 0.00 in0.0 mm 0.00 in0.0 mm
09:55 PM 62.2°F16.8°C 27.8°F-2.3°C 27% 3.0 mph WSW4.8 kmh WSW 7.0 mph11.3 kmh 29.88 in1011.9 mb 0.00 in0.0 mm 0.00 in0.0 mm 0.00 in0.0 mm
10:00 PM 62.0°F16.7°C 27.6°F-2.4°C 27% 2.0 mph WSW3.2 kmh WSW 7.0 mph11.3 kmh 29.89 in1012.2 mb 0.00 in0.0 mm 0.00 in0.0 mm 0.00 in0.0 mm
10:05 PM 61.9°F16.6°C 28.4°F-2.0°C 28% 2.0 mph WSW3.2 kmh WSW 6.0 mph9.7 kmh 29.89 in1012.2 mb 0.00 in0.0 mm 0.00 in0.0 mm 0.00 in0.0 mm
10:10 PM 61.7°F16.5°C 28.2°F-2.1°C 28% 2.0 mph WSW3.2 kmh WSW 6.0 mph9.7 kmh 29.89 in1012.2 mb 0.00 in0.0 mm 0.00 in0.0 mm 0.00 in0.0 mm
10:15 PM 61.6°F16.4°C 29.0°F-1.7°C 29% 1.0 mph WSW1.6 kmh WSW 3.0 mph4.8 kmh 29.88 in1011.9 mb 0.00 in0.0 mm 0.00 in0.0 mm 0.00 in0.0 mm
10:20 PM 61.4°F16.3°C 28.8°F-1.8°C 29% 1.0 mph WSW1.6 kmh WSW 3.0 mph4.8 kmh 29.89 in1012.2 mb 0.00 in0.0 mm 0.00 in0.0 mm 0.00 in0.0 mm
10:25 PM 61.2°F16.2°C 28.7°F-1.8°C 29% 1.0 mph WSW1.6 kmh WSW 3.0 mph4.8 kmh 29.88 in1011.9 mb 0.00 in0.0 mm 0.00 in0.0 mm 0.00 in0.0 mm
10:30 PM 61.1°F16.2°C 28.6°F-1.9°C 29% 1.0 mph WSW1.6 kmh WSW 3.0 mph4.8 kmh 29.89 in1012.2 mb 0.00 in0.0 mm 0.00 in0.0 mm 0.00 in0.0 mm
10:35 PM 60.9°F16.1°C 28.4°F-2.0°C 29% 1.0 mph WSW1.6 kmh WSW 3.0 mph4.8 kmh 29.89 in1012.2 mb 0.00 in0.0 mm 0.00 in0.0 mm 0.00 in0.0 mm
10:40 PM 60.7°F15.9°C 29.1°F-1.6°C 30% 1.0 mph WSW1.6 kmh WSW 3.0 mph4.8 kmh 29.89 in1012.2 mb 0.00 in0.0 mm 0.00 in0.0 mm 0.00 in0.0 mm
10:45 PM 60.6°F15.9°C 29.0°F-1.7°C 30% 1.0 mph WSW1.6 kmh WSW 2.0 mph3.2 kmh 29.89 in1012.2 mb 0.00 in0.0 mm 0.00 in0.0 mm 0.00 in0.0 mm
10:50 PM 60.5°F15.8°C 28.9°F-1.7°C 30% 1.0 mph WSW1.6 kmh WSW 2.0 mph3.2 kmh 29.89 in1012.2 mb 0.00 in0.0 mm 0.00 in0.0 mm 0.00 in0.0 mm
10:55 PM 60.3°F15.7°C 28.7°F-1.8°C 30% 1.0 mph WSW1.6 kmh WSW 3.0 mph4.8 kmh 29.89 in1012.2 mb 0.00 in0.0 mm 0.00 in0.0 mm 0.00 in0.0 mm
11:00 PM 60.1°F15.6°C 29.3°F-1.5°C 31% 1.0 mph WSW1.6 kmh WSW 3.0 mph4.8 kmh 29.88 in1011.9 mb 0.00 in0.0 mm 0.00 in0.0 mm 0.00 in0.0 mm
11:05 PM 60.0°F15.6°C 29.2°F-1.6°C 31% Calm Calm 2.0 mph3.2 kmh 29.88 in1011.9 mb 0.00 in0.0 mm 0.00 in0.0 mm 0.00 in0.0 mm
11:10 PM 59.8°F15.4°C 28.3°F-2.1°C 30% Calm Calm 2.0 mph3.2 kmh 29.88 in1011.9 mb 0.00 in0.0 mm 0.00 in0.0 mm 0.00 in0.0 mm
11:15 PM 59.6°F15.3°C 28.1°F-2.2°C 30% 1.0 mph WSW1.6 kmh WSW 2.0 mph3.2 kmh 29.88 in1011.9 mb 0.00 in0.0 mm 0.00 in0.0 mm 0.00 in0.0 mm
11:20 PM 59.3°F15.2°C 27.8°F-2.3°C 30% 2.0 mph WSW3.2 kmh WSW 3.0 mph4.8 kmh 29.88 in1011.9 mb 0.00 in0.0 mm 0.00 in0.0 mm 0.00 in0.0 mm
11:25 PM 59.0°F15.0°C 27.6°F-2.4°C 30% 2.0 mph WSW3.2 kmh WSW 4.0 mph6.4 kmh 29.88 in1011.9 mb 0.00 in0.0 mm 0.00 in0.0 mm 0.00 in0.0 mm
11:30 PM 58.8°F14.9°C 26.6°F-3.0°C 29% 2.0 mph WSW3.2 kmh WSW 4.0 mph6.4 kmh 29.88 in1011.9 mb 0.00 in0.0 mm 0.00 in0.0 mm 0.00 in0.0 mm
11:35 PM 58.6°F14.8°C 26.4°F-3.1°C 29% 2.0 mph WSW3.2 kmh WSW 4.0 mph6.4 kmh 29.87 in1011.5 mb 0.00 in0.0 mm 0.00 in0.0 mm 0.00 in0.0 mm
11:40 PM 58.4°F14.7°C 26.2°F-3.2°C 29% 1.0 mph WSW1.6 kmh WSW 3.0 mph4.8 kmh 29.87 in1011.5 mb 0.00 in0.0 mm 0.00 in0.0 mm 0.00 in0.0 mm
11:45 PM 58.2°F14.6°C 26.1°F-3.3°C 29% 1.0 mph WSW1.6 kmh WSW 2.0 mph3.2 kmh 29.87 in1011.5 mb 0.00 in0.0 mm 0.00 in0.0 mm 0.00 in0.0 mm
11:50 PM 58.0°F14.4°C 26.7°F-2.9°C 30% 1.0 mph WSW1.6 kmh WSW 2.0 mph3.2 kmh 29.87 in1011.5 mb 0.00 in0.0 mm 0.00 in0.0 mm 0.00 in0.0 mm
11:55 PM 57.8°F14.3°C 26.5°F-3.1°C 30% 1.0 mph WSW1.6 kmh WSW 2.0 mph3.2 kmh 29.87 in1011.5 mb 0.00 in0.0 mm 0.00 in0.0 mm 0.00 in0.0 mm